• Join FlightAware (Why Join?)
  • Login
  • US Flag 
02:20AM EDT


 

Airport Tracker/Info


-or-


 

Live Flight TrackerFlight Track Log ✈ UAL252 ✈ 28-Jul-2013 ✈ MYNN / NAS - KEWR

Flight Track Log - Related Links

Times and Time Zones

All times are in EDT time to prevent confusion due to time zone crossing. See the UAL252 flight status page for this flight to view local times or setup timezone preferences in your user account.

Time Position Orientation Groundspeed Altitude Reporting Facility
EDT Latitude Longitude Course Direction KTS MPH feet Rate Location/Type
04:35PM 24.9903 -77.4436 307° West 452 520 2,400  Level Miami Center
04:36PM 24.9461 -77.4983 228° Southwest 354 407 4,800 2,340 Climbing Miami Center
04:37PM 24.9667 -77.5672 288° West 204 235 7,100 2,700 Climbing Miami Center
04:38PM 25.0461 -77.6067 336° Northwest 190 219 10,300 3,240 Climbing Miami Center
04:39PM 25.1167 -77.6597 326° Northwest 249 287 13,600 3,060 Climbing Miami Center
04:40PM 25.4905 -78.0815 307° West  Level FlightAware Approximate
04:40PM 25.1539 -77.7519 294° West 301 346 16,500  Level Miami Center
04:41PM 25.1908 -77.8486 293° West 317 365 19,300 2,580 Climbing Miami Center
04:42PM 25.2236 -77.9522 289° West 343 395 21,700 2,400 Climbing Miami Center
04:43PM 25.2772 -78.0517 301° West 362 417 24,200 2,100 Climbing Miami Center
04:44PM 25.3328 -78.1486 302° West 367 422 25,900 1,200 Climbing Miami Center
04:45PM 25.3925 -78.2528 302° West 387 445 26,600 480 Climbing Miami Center
04:46PM 25.4561 -78.3617 303° West 410 472 26,900 180 Climbing Miami Center
04:47PM 25.5217 -78.4822 301° West 437 503 27,000 360 Climbing Miami Center
04:48PM 25.5956 -78.6031 304° West 462 532 27,700 600 Climbing Miami Center
04:49PM 25.6567 -78.7331 298° West 475 547 28,200 600 Climbing Miami Center
04:50PM 25.6967 -78.8767 287° West 482 555 29,000 900 Climbing Miami Center
04:51PM 25.7383 -79.0158 288° West 482 555 30,000 960 Climbing Miami Center
04:52PM 25.7803 -79.1550 289° West 482 555 31,000 960 Climbing Miami Center
04:53PM 25.8178 -79.2942 287° West 477 549 32,000 1,020 Climbing Miami Center
04:54PM 25.8592 -79.4311 289° West 477 549 33,100 900 Climbing Miami Center
04:55PM 25.9006 -79.5706 288° West 477 549 33,900 360 Climbing Miami Center
04:56PM 25.9419 -79.7056 289° West 477 549 33,900  Level Miami Center
04:57PM 25.9808 -79.8428 288° West 472 543 34,000  Climbing Miami Center
04:58PM 26.0219 -79.9781 289° West 467 537 33,900  Descending Miami Center
04:59PM 26.0692 -80.1089 292° West 462 532 34,000  Climbing Miami Center
05:00PM 26.1631 -80.2061 317° Northwest 456 525 34,000 60 Level Miami Center
05:01PM 26.2850 -80.2653 336° Northwest 459 528 34,200 420 Climbing Miami Center
05:02PM 26.3903 -80.3147 337° Northwest 464 534 34,900 360 Climbing Miami Center
05:03PM 26.5225 -80.3767 337° Northwest 464 534 35,000  Climbing Miami Center
05:04PM 26.6300 -80.4261 338° Northwest 464 534 35,000  Level Miami Center
05:05PM 26.7600 -80.4883 337° Northwest 464 534 35,000  Level Miami Center
05:06PM 26.8653 -80.5406 336° Northwest 458 527 35,000  Level Miami Center
05:07PM 26.9850 -80.5956 338° Northwest 458 527 35,000  Level Miami Center
05:08PM 27.1044 -80.6531 337° Northwest 458 527 35,000  Level Miami Center
05:09PM 27.2264 -80.7083 338° Northwest 458 527 35,000 -60 Level Miami Center
05:10PM 27.3478 -80.7661 337° Northwest 463 533 34,900 -60 Descending Miami Center
05:11PM 27.4881 -80.8272 339° North 471 542 34,900  Level Miami Center
05:12PM 27.6036 -80.8828 337° Northwest 471 542 34,900  Level Miami Center
05:13PM 27.7331 -80.8803 North 457 526 35,000  Climbing Miami Center
05:14PM 27.8614 -80.8378 16° North 441 507 34,900  Descending Miami Center
05:15PM 27.9856 -80.7997 15° North 453 521 35,000  Climbing Miami Center
05:16PM 28.1119 -80.7594 16° North 458 527 35,000  Level Miami Center
05:17PM 28.2383 -80.7192 16° North 458 527 35,000  Level Miami Center
05:18PM 28.3606 -80.6714 19° North 458 527 35,000  Level Miami Center
05:20PM 28.6003 -80.5517 24° Northeast 468 539 35,000  Level Jacksonville Center
05:21PM 28.7203 -80.4922 23° Northeast 468 539 35,000  Level Jacksonville Center
05:22PM 28.8422 -80.4369 22° Northeast 473 544 35,000  Level Jacksonville Center
05:23PM 28.9731 -80.4078 11° North 468 539 35,000  Level Jacksonville Center
05:24PM 29.1044 -80.3925 North 468 539 35,000  Level Jacksonville Center
05:25PM 29.2336 -80.3869 North 468 539 35,000  Level Jacksonville Center
05:26PM 29.3614 -80.4144 349° North 463 533 35,000  Level Jacksonville Center
05:27PM 29.4856 -80.4544 344° North 463 533 35,000 -60 Level Jacksonville Center
05:28PM 29.6133 -80.4822 349° North 457 526 34,900  Descending Jacksonville Center
05:29PM 29.7467 -80.4647 North 464 534 35,000  Climbing Jacksonville Center
05:30PM 29.8797 -80.4422 North 464 534 35,000  Level Jacksonville Center
05:31PM 30.0086 -80.4197 North 470 541 35,000  Level Jacksonville Center
05:32PM 30.1439 -80.3969 North 476 548 35,000 -60 Level Jacksonville Center
05:33PM 30.2750 -80.3719 North 481 554 34,900 -60 Descending Jacksonville Center
05:34PM 30.4081 -80.3492 North 486 559 34,900  Level Jacksonville Center
05:35PM 30.5414 -80.3264 North 481 554 35,000  Climbing Jacksonville Center
05:36PM 30.6767 -80.3033 North 481 554 35,000 -60 Level Jacksonville Center
05:37PM 30.8075 -80.2803 North 481 554 34,900  Descending Jacksonville Center
05:38PM 30.9450 -80.2572 North 486 559 35,000  Climbing Jacksonville Center
05:39PM 31.0697 -80.2294 11° North 476 548 35,000 -60 Level Jacksonville Center
05:40PM 31.2069 -80.2086 North 476 548 34,900 60 Descending Jacksonville Center
05:41PM 31.3400 -80.1853 North 483 556 35,200 360 Climbing Jacksonville Center
05:42PM 31.4753 -80.1669 North 483 556 35,700 540 Climbing Jacksonville Center
05:43PM 31.6083 -80.1408 North 483 556 36,300 600 Climbing Jacksonville Center
05:44PM 31.7456 -80.1150 North 483 556 37,000 300 Climbing Jacksonville Center
05:45PM 31.8789 -80.0914 North 483 556 36,900  Descending Jacksonville Center
05:46PM 32.0161 -80.0650 North 488 562 37,000  Climbing Jacksonville Center
05:47PM 32.1511 -80.0414 North 488 562 36,900 -60 Descending Jacksonville Center
05:48PM 32.2883 -80.0175 North 488 562 36,900  Level Jacksonville Center
05:49PM 32.4236 -79.9933 North 488 562 37,000  Climbing Jacksonville Center
05:50PM 32.5586 -79.9669 North 488 562 37,000  Level Jacksonville Center
05:51PM 32.6958 -79.9428 North 488 562 37,000  Level Jacksonville Center
05:52PM 32.8328 -79.9136 10° North 488 562 37,000 -60 Level Jacksonville Center
05:53PM 32.9722 -79.8892 North 494 568 36,900 -60 Descending Jacksonville Center
05:54PM 33.1114 -79.8647 North 500 575 36,900  Level Jacksonville Center
05:55PM 33.2394 -79.8031 22° Northeast 500 575 37,000  Climbing Jacksonville Center
05:56PM 33.3583 -79.7169 31° Northeast 490 564 36,900  Descending Jacksonville Center
05:57PM 33.4728 -79.6283 33° Northeast 490 564 37,000  Climbing Jacksonville Center
05:58PM 33.5853 -79.5442 32° Northeast 484 557 36,900 -60 Descending Jacksonville Center
05:59PM 33.6958 -79.4578 33° Northeast 471 542 36,900  Level Jacksonville Center
06:00PM 33.8042 -79.3786 31° Northeast 462 532 36,900  Level Jacksonville Center
06:01PM 33.9186 -79.2939 32° Northeast 467 537 37,000  Climbing Jacksonville Center
06:02PM 34.0392 -79.2036 32° Northeast 478 550 37,000 -60 Level Jacksonville Center
06:03PM 34.1697 -79.1053 32° Northeast 485 558 36,900 -540 Descending Jacksonville Center
06:04PM 34.2964 -79.0194 29° Northeast 498 573 36,000 -960 Descending Jacksonville Center
06:05PM 34.4267 -78.9683 18° North 504 580 35,000 -480 Descending Washington Center
06:06PM 34.5519 -78.8903 27° Northeast 503 579 35,000  Level Washington Center
06:07PM 34.6567 -78.8011 35° Northeast 480 552 35,000  Level Washington Center
06:08PM 34.7761 -78.6969 36° Northeast 469 540 35,000  Level Washington Center
06:09PM 34.8700 -78.6172 35° Northeast 472 543 35,000  Level Washington Center
06:10PM 34.9789 -78.5222 36° Northeast 472 543 35,000  Level Washington Center
06:11PM 35.0914 -78.4375 32° Northeast 472 543 35,000  Level Washington Center
06:12PM 35.2164 -78.3658 25° Northeast 472 543 35,000  Level Washington Center
06:13PM 35.3644 -78.2792 26° Northeast 507 583 35,000  Level Washington Center
06:14PM 35.4975 -78.2044 25° Northeast 514 592 35,000  Level Washington Center
06:15PM 35.6328 -78.1272 25° Northeast 521 600 35,000  Level Washington Center
06:16PM 35.7658 -78.0494 25° Northeast 521 600 35,000  Level Washington Center
06:17PM 35.8967 -77.9714 26° Northeast 526 605 35,000  Level Washington Center
06:18PM 36.0275 -77.8983 24° Northeast 526 605 35,000  Level Washington Center
06:19PM 36.1625 -77.8200 25° Northeast 526 605 35,000  Level Washington Center
06:20PM 36.2953 -77.7414 26° Northeast 526 605 35,000  Level Washington Center
06:21PM 36.4008 -77.6769 26° Northeast 526 605 35,000  Level Washington Center
06:22PM 36.5589 -77.5831 26° Northeast 526 605 35,000  Level Washington Center
06:23PM 36.6917 -77.5036 26° Northeast 526 605 35,000  Level Washington Center
06:24PM 36.8264 -77.4211 26° Northeast 526 605 35,000  Level Washington Center
06:25PM 36.9569 -77.3411 26° Northeast 526 605 35,000  Level Washington Center
06:26PM 37.0936 -77.2608 25° Northeast 526 605 35,000  Level Washington Center
06:27PM 37.2242 -77.1828 25° Northeast 526 605 35,000  Level Washington Center
06:28PM 37.3461 -77.0992 29° Northeast 532 612 35,000  Level Washington Center
06:29PM 37.4892 -76.9947 30° Northeast 545 627 35,000  Level Washington Center
06:30PM 37.6217 -76.9000 30° Northeast 550 633 35,000  Level Washington Center
06:31PM 37.7478 -76.8053 31° Northeast 538 619 35,000  Level Washington Center
06:32PM 37.8803 -76.7072 30° Northeast 532 612 35,000  Level Washington Center
06:33PM 38.0061 -76.6117 31° Northeast 532 612 35,000  Level Washington Center
06:34PM 38.1364 -76.5131 31° Northeast 532 612 35,000  Level Washington Center
06:35PM 38.2683 -76.4194 29° Northeast 532 612 35,000  Level Washington Center
06:36PM 38.4147 -76.3656 16° North 532 612 35,000  Level Washington Center
06:37PM 38.5589 -76.3164 15° North 537 618 35,000 -240 Level Washington Center
06:38PM 38.7011 -76.2433 22° Northeast 537 618 34,600 -900 Descending Washington Center
06:39PM 38.8056 -76.1697 29° Northeast 537 618 33,300 -1,980 Descending Washington Center
06:40PM 38.9542 -76.0667 28° Northeast 537 618 30,600 -2,880 Descending Washington Center
06:41PM 39.0919 -75.9819 26° Northeast 542 624 27,600 -2,700 Descending Washington Center
06:42PM 39.2236 -75.8969 27° Northeast 530 610 25,400 -1,920 Descending Washington Center
06:43PM 39.3486 -75.8169 26° Northeast 510 587 23,900 -1,200 Descending Washington Center
06:44PM 39.4572 -75.7178 35° Northeast 491 565 23,100 -1,140 Descending Washington Center
06:45PM 39.5572 -75.6050 41° Northeast 480 552 21,600 -1,200 Descending Washington Center
06:46PM 39.6594 -75.5000 38° Northeast 470 541 20,700 -1,200 Descending Washington Center
06:47PM 39.7697 -75.4161 30° Northeast 460 529 19,300 -1,320 Descending Washington Center
06:48PM 39.8736 -75.3347 31° Northeast 446 513 18,200 -1,440 Descending Washington Center
06:49PM 39.9672 -75.2611 31° Northeast 414 476 16,400 -2,760 Descending Washington Center
06:50PM 40.0481 -75.1633 43° Northeast 397 457 12,700 -2,700 Descending Washington Center
06:51PM 40.1228 -75.0678 44° Northeast 381 438 11,100 -1,680 Descending Washington Center
06:51PM 40.1667 -75.0167 42° Northeast 326 375 10,200 -1,800 Descending New York TRACON
06:52PM 40.2167 -74.9500 46° Northeast 313 360 8,600 -1,140 Descending New York TRACON
06:53PM 40.2833 -74.8667 44° Northeast 309 356 8,100 -300 Descending New York TRACON
06:54PM 40.3333 -74.7833 52° Northeast 306 352 8,000 -720 Descending New York TRACON
06:55PM 40.4000 -74.7000 44° Northeast 296 341 6,700 -960 Descending New York TRACON
06:56PM 40.4667 -74.6667 21° North 290 334 6,100 -300 Descending New York TRACON
06:57PM 40.5500 -74.6333 17° North 288 331 6,100  Level New York TRACON
06:58PM 40.6167 -74.6167 11° North 287 330 6,100 -300 Level New York TRACON
06:59PM 40.7000 -74.5667 24° Northeast 293 337 5,600 -540 Descending New York TRACON
07:00PM 40.7667 -74.5000 37° Northeast 295 339 5,000 -300 Descending New York TRACON
07:01PM 40.8333 -74.4333 37° Northeast 289 333 5,100  Climbing New York TRACON
07:02PM 40.8833 -74.3667 45° Northeast 279 321 5,100  Level New York TRACON
07:03PM 40.9167 -74.2667 66° East 280 322 5,100 -240 Level New York TRACON
07:04PM 40.9167 -74.1833 90° East 257 296 4,700 -840 Descending New York TRACON
07:05PM 40.8833 -74.1167 123° Southeast 209 241 3,500 -960 Descending New York TRACON
07:06PM 40.8500 -74.0833 143° Southeast 208 239 2,800 -780 Descending New York TRACON
07:07PM 40.7833 -74.1000 191° South 179 206 2,000 -720 Descending New York TRACON
07:08PM 40.7500 -74.1333 217° Southwest 144 166 1,300 -780 Descending New York TRACON
07:09PM 40.7167 -74.1500 201° Southwest 147 169 500 -840 Descending New York TRACON